sensor_id;sensor_type;location;lat;lon;timestamp;P1;durP1;ratioP1;P2;durP2;ratioP2
65045;SDS011;54657;52.022;5.534;2022-09-01T00:00:22;3.22;;;1.50;;
65045;SDS011;54657;52.022;5.534;2022-09-01T00:02:53;3.17;;;1.63;;
65045;SDS011;54657;52.022;5.534;2022-09-01T00:05:19;2.25;;;1.40;;
65045;SDS011;54657;52.022;5.534;2022-09-01T00:07:44;1.73;;;1.50;;
65045;SDS011;54657;52.022;5.534;2022-09-01T00:10:10;1.92;;;1.30;;
65045;SDS011;54657;52.022;5.534;2022-09-01T00:12:36;1.30;;;1.20;;
65045;SDS011;54657;52.022;5.534;2022-09-01T00:15:03;2.40;;;1.45;;
65045;SDS011;54657;52.022;5.534;2022-09-01T00:17:30;2.47;;;1.30;;
65045;SDS011;54657;52.022;5.534;2022-09-01T00:19:55;1.73;;;1.45;;
65045;SDS011;54657;52.022;5.534;2022-09-01T00:22:21;2.00;;;1.50;;
65045;SDS011;54657;52.022;5.534;2022-09-01T00:24:47;2.13;;;1.30;;
65045;SDS011;54657;52.022;5.534;2022-09-01T00:27:12;1.75;;;1.45;;
65045;SDS011;54657;52.022;5.534;2022-09-01T00:29:38;2.00;;;1.45;;
65045;SDS011;54657;52.022;5.534;2022-09-01T00:32:03;2.08;;;1.50;;
65045;SDS011;54657;52.022;5.534;2022-09-01T00:34:29;3.33;;;1.60;;
65045;SDS011;54657;52.022;5.534;2022-09-01T00:36:55;3.58;;;1.45;;
65045;SDS011;54657;52.022;5.534;2022-09-01T00:39:20;2.03;;;1.60;;
65045;SDS011;54657;52.022;5.534;2022-09-01T00:41:46;1.88;;;1.48;;
65045;SDS011;54657;52.022;5.534;2022-09-01T00:44:15;3.15;;;1.38;;
65045;SDS011;54657;52.022;5.534;2022-09-01T00:46:46;1.95;;;1.50;;
65045;SDS011;54657;52.022;5.534;2022-09-01T00:49:18;1.65;;;1.40;;
65045;SDS011;54657;52.022;5.534;2022-09-01T00:51:48;1.35;;;1.25;;
65045;SDS011;54657;52.022;5.534;2022-09-01T00:54:20;3.22;;;1.60;;
65045;SDS011;54657;52.022;5.534;2022-09-01T00:56:48;1.98;;;1.40;;
65045;SDS011;54657;52.022;5.534;2022-09-01T00:59:15;1.73;;;1.38;;
65045;SDS011;54657;52.022;5.534;2022-09-01T01:01:43;1.58;;;1.48;;
65045;SDS011;54657;52.022;5.534;2022-09-01T01:04:09;4.45;;;1.60;;
65045;SDS011;54657;52.022;5.534;2022-09-01T01:06:59;1.60;;;1.50;;
65045;SDS011;54657;52.022;5.534;2022-09-01T01:09:29;3.95;;;1.42;;
65045;SDS011;54657;52.022;5.534;2022-09-01T01:11:58;1.90;;;1.50;;
65045;SDS011;54657;52.022;5.534;2022-09-01T01:14:26;2.45;;;1.40;;
65045;SDS011;54657;52.022;5.534;2022-09-01T01:16:55;1.90;;;1.70;;
65045;SDS011;54657;52.022;5.534;2022-09-01T01:22:36;2.17;;;1.30;;
65045;SDS011;54657;52.022;5.534;2022-09-01T01:25:22;1.85;;;1.55;;
65045;SDS011;54657;52.022;5.534;2022-09-01T01:27:48;2.70;;;1.50;;
65045;SDS011;54657;52.022;5.534;2022-09-01T01:30:15;2.33;;;1.45;;
65045;SDS011;54657;52.022;5.534;2022-09-01T01:32:43;4.60;;;1.73;;
65045;SDS011;54657;52.022;5.534;2022-09-01T01:35:10;2.28;;;1.50;;
65045;SDS011;54657;52.022;5.534;2022-09-01T01:37:40;2.47;;;1.60;;
65045;SDS011;54657;52.022;5.534;2022-09-01T01:40:09;3.35;;;1.65;;
65045;SDS011;54657;52.022;5.534;2022-09-01T01:42:40;3.90;;;1.50;;
65045;SDS011;54657;52.022;5.534;2022-09-01T01:45:10;3.17;;;1.63;;
65045;SDS011;54657;52.022;5.534;2022-09-01T01:47:41;3.13;;;1.65;;
65045;SDS011;54657;52.022;5.534;2022-09-01T01:50:10;5.25;;;1.45;;
65045;SDS011;54657;52.022;5.534;2022-09-01T01:52:36;1.63;;;1.52;;
65045;SDS011;54657;52.022;5.534;2022-09-01T01:55:02;2.35;;;1.35;;
65045;SDS011;54657;52.022;5.534;2022-09-01T01:57:29;5.10;;;1.50;;
65045;SDS011;54657;52.022;5.534;2022-09-01T01:59:56;2.55;;;1.65;;
65045;SDS011;54657;52.022;5.534;2022-09-01T02:02:22;2.03;;;1.65;;
65045;SDS011;54657;52.022;5.534;2022-09-01T02:04:48;3.45;;;1.63;;
65045;SDS011;54657;52.022;5.534;2022-09-01T02:07:14;1.63;;;1.50;;
65045;SDS011;54657;52.022;5.534;2022-09-01T02:09:40;3.67;;;1.85;;
65045;SDS011;54657;52.022;5.534;2022-09-01T02:12:09;3.63;;;1.70;;
65045;SDS011;54657;52.022;5.534;2022-09-01T02:14:35;2.10;;;1.90;;
65045;SDS011;54657;52.022;5.534;2022-09-01T02:17:02;3.90;;;2.05;;
65045;SDS011;54657;52.022;5.534;2022-09-01T02:19:31;3.08;;;1.58;;
65045;SDS011;54657;52.022;5.534;2022-09-01T02:21:57;2.10;;;1.42;;
65045;SDS011;54657;52.022;5.534;2022-09-01T02:24:24;2.45;;;1.50;;
65045;SDS011;54657;52.022;5.534;2022-09-01T02:26:50;2.13;;;1.92;;
65045;SDS011;54657;52.022;5.534;2022-09-01T02:29:17;6.22;;;1.67;;
65045;SDS011;54657;52.022;5.534;2022-09-01T02:31:46;2.03;;;1.83;;
65045;SDS011;54657;52.022;5.534;2022-09-01T02:34:13;1.60;;;1.50;;
65045;SDS011;54657;52.022;5.534;2022-09-01T02:36:41;2.65;;;1.67;;
65045;SDS011;54657;52.022;5.534;2022-09-01T02:39:12;3.28;;;1.88;;
65045;SDS011;54657;52.022;5.534;2022-09-01T02:41:48;3.92;;;1.83;;
65045;SDS011;54657;52.022;5.534;2022-09-01T02:44:14;2.80;;;1.50;;
65045;SDS011;54657;52.022;5.534;2022-09-01T02:46:41;1.70;;;1.50;;
65045;SDS011;54657;52.022;5.534;2022-09-01T02:49:08;3.70;;;1.60;;
65045;SDS011;54657;52.022;5.534;2022-09-01T02:51:39;1.60;;;1.50;;
65045;SDS011;54657;52.022;5.534;2022-09-01T02:54:06;1.92;;;1.65;;
65045;SDS011;54657;52.022;5.534;2022-09-01T02:56:32;1.40;;;1.30;;
65045;SDS011;54657;52.022;5.534;2022-09-01T02:58:58;4.00;;;1.73;;
65045;SDS011;54657;52.022;5.534;2022-09-01T03:01:25;3.65;;;1.92;;
65045;SDS011;54657;52.022;5.534;2022-09-01T03:03:54;2.35;;;1.60;;
65045;SDS011;54657;52.022;5.534;2022-09-01T03:06:25;1.70;;;1.60;;
65045;SDS011;54657;52.022;5.534;2022-09-01T03:08:55;2.60;;;1.52;;
65045;SDS011;54657;52.022;5.534;2022-09-01T03:11:24;4.50;;;1.70;;
65045;SDS011;54657;52.022;5.534;2022-09-01T03:13:50;1.65;;;1.55;;
65045;SDS011;54657;52.022;5.534;2022-09-01T03:16:16;5.75;;;1.75;;
65045;SDS011;54657;52.022;5.534;2022-09-01T03:18:42;2.58;;;1.40;;
65045;SDS011;54657;52.022;5.534;2022-09-01T03:21:08;2.05;;;1.60;;
65045;SDS011;54657;52.022;5.534;2022-09-01T03:23:38;3.10;;;1.40;;
65045;SDS011;54657;52.022;5.534;2022-09-01T03:26:04;2.55;;;1.50;;
65045;SDS011;54657;52.022;5.534;2022-09-01T03:28:30;3.25;;;1.70;;
65045;SDS011;54657;52.022;5.534;2022-09-01T03:30:56;3.25;;;1.60;;
65045;SDS011;54657;52.022;5.534;2022-09-01T03:33:23;4.13;;;1.50;;
65045;SDS011;54657;52.022;5.534;2022-09-01T03:35:49;2.80;;;2.00;;
65045;SDS011;54657;52.022;5.534;2022-09-01T03:38:16;2.55;;;1.50;;
65045;SDS011;54657;52.022;5.534;2022-09-01T03:40:46;3.75;;;1.60;;
65045;SDS011;54657;52.022;5.534;2022-09-01T03:43:15;2.45;;;1.60;;
65045;SDS011;54657;52.022;5.534;2022-09-01T03:45:41;1.83;;;1.40;;
65045;SDS011;54657;52.022;5.534;2022-09-01T03:48:08;2.92;;;1.60;;
65045;SDS011;54657;52.022;5.534;2022-09-01T03:50:38;1.77;;;1.35;;
65045;SDS011;54657;52.022;5.534;2022-09-01T03:53:11;1.60;;;1.50;;
65045;SDS011;54657;52.022;5.534;2022-09-01T03:55:38;2.13;;;1.40;;
65045;SDS011;54657;52.022;5.534;2022-09-01T03:58:06;1.55;;;1.40;;
65045;SDS011;54657;52.022;5.534;2022-09-01T04:00:38;2.67;;;1.63;;
65045;SDS011;54657;52.022;5.534;2022-09-01T04:03:07;2.40;;;1.85;;
65045;SDS011;54657;52.022;5.534;2022-09-01T04:05:36;1.90;;;1.52;;
65045;SDS011;54657;52.022;5.534;2022-09-01T04:08:03;2.92;;;2.63;;
65045;SDS011;54657;52.022;5.534;2022-09-01T04:10:34;1.90;;;1.70;;
65045;SDS011;54657;52.022;5.534;2022-09-01T04:13:02;4.35;;;2.00;;
65045;SDS011;54657;52.022;5.534;2022-09-01T04:15:29;1.92;;;1.73;;
65045;SDS011;54657;52.022;5.534;2022-09-01T04:17:56;3.25;;;1.80;;
65045;SDS011;54657;52.022;5.534;2022-09-01T04:20:38;2.95;;;1.70;;
65045;SDS011;54657;52.022;5.534;2022-09-01T04:23:33;2.45;;;1.45;;
65045;SDS011;54657;52.022;5.534;2022-09-01T04:28:33;3.75;;;1.50;;
65045;SDS011;54657;52.022;5.534;2022-09-01T04:31:02;2.88;;;2.10;;
65045;SDS011;54657;52.022;5.534;2022-09-01T04:33:33;1.73;;;1.50;;
65045;SDS011;54657;52.022;5.534;2022-09-01T04:36:25;3.25;;;1.52;;
65045;SDS011;54657;52.022;5.534;2022-09-01T04:38:52;1.95;;;1.50;;
65045;SDS011;54657;52.022;5.534;2022-09-01T04:41:21;2.05;;;1.60;;
65045;SDS011;54657;52.022;5.534;2022-09-01T04:43:49;2.88;;;1.77;;
65045;SDS011;54657;52.022;5.534;2022-09-01T04:46:16;1.70;;;1.60;;
65045;SDS011;54657;52.022;5.534;2022-09-01T04:48:43;2.05;;;1.48;;
65045;SDS011;54657;52.022;5.534;2022-09-01T04:51:09;2.15;;;1.50;;
65045;SDS011;54657;52.022;5.534;2022-09-01T04:53:37;4.10;;;1.40;;
65045;SDS011;54657;52.022;5.534;2022-09-01T04:56:04;2.00;;;1.50;;
65045;SDS011;54657;52.022;5.534;2022-09-01T04:58:31;1.63;;;1.48;;
65045;SDS011;54657;52.022;5.534;2022-09-01T05:00:58;1.88;;;1.70;;
65045;SDS011;54657;52.022;5.534;2022-09-01T05:03:24;2.90;;;1.58;;
65045;SDS011;54657;52.022;5.534;2022-09-01T05:05:50;3.47;;;1.63;;
65045;SDS011;54657;52.022;5.534;2022-09-01T05:08:18;2.38;;;1.50;;
65045;SDS011;54657;52.022;5.534;2022-09-01T05:10:49;4.85;;;1.67;;
65045;SDS011;54657;52.022;5.534;2022-09-01T05:13:17;1.65;;;1.40;;
65045;SDS011;54657;52.022;5.534;2022-09-01T05:15:47;1.80;;;1.50;;
65045;SDS011;54657;52.022;5.534;2022-09-01T05:18:25;2.95;;;1.60;;
65045;SDS011;54657;52.022;5.534;2022-09-01T05:20:52;1.50;;;1.40;;
65045;SDS011;54657;52.022;5.534;2022-09-01T05:23:18;2.00;;;1.27;;
65045;SDS011;54657;52.022;5.534;2022-09-01T05:25:46;2.08;;;1.30;;
65045;SDS011;54657;52.022;5.534;2022-09-01T05:28:15;3.90;;;1.40;;
65045;SDS011;54657;52.022;5.534;2022-09-01T05:30:42;2.25;;;2.05;;
65045;SDS011;54657;52.022;5.534;2022-09-01T05:33:10;1.98;;;1.40;;
65045;SDS011;54657;52.022;5.534;2022-09-01T05:35:40;3.72;;;1.50;;
65045;SDS011;54657;52.022;5.534;2022-09-01T05:38:10;1.60;;;1.45;;
65045;SDS011;54657;52.022;5.534;2022-09-01T05:40:39;2.17;;;1.30;;
65045;SDS011;54657;52.022;5.534;2022-09-01T05:43:06;2.92;;;1.33;;
65045;SDS011;54657;52.022;5.534;2022-09-01T05:45:35;2.50;;;1.20;;
65045;SDS011;54657;52.022;5.534;2022-09-01T05:48:01;2.53;;;1.33;;
65045;SDS011;54657;52.022;5.534;2022-09-01T05:50:27;3.50;;;1.40;;
65045;SDS011;54657;52.022;5.534;2022-09-01T05:52:53;2.05;;;1.40;;
65045;SDS011;54657;52.022;5.534;2022-09-01T05:55:18;3.15;;;1.35;;
65045;SDS011;54657;52.022;5.534;2022-09-01T05:57:44;2.38;;;1.40;;
65045;SDS011;54657;52.022;5.534;2022-09-01T06:00:12;6.22;;;1.38;;
65045;SDS011;54657;52.022;5.534;2022-09-01T06:02:41;3.97;;;1.58;;
65045;SDS011;54657;52.022;5.534;2022-09-01T06:05:08;1.92;;;1.40;;
65045;SDS011;54657;52.022;5.534;2022-09-01T06:07:34;1.20;;;1.10;;
65045;SDS011;54657;52.022;5.534;2022-09-01T06:10:07;4.18;;;1.60;;
65045;SDS011;54657;52.022;5.534;2022-09-01T06:12:33;3.67;;;1.45;;
65045;SDS011;54657;52.022;5.534;2022-09-01T06:14:59;3.40;;;1.50;;
65045;SDS011;54657;52.022;5.534;2022-09-01T06:17:25;4.40;;;1.70;;
65045;SDS011;54657;52.022;5.534;2022-09-01T06:19:53;3.47;;;1.63;;
65045;SDS011;54657;52.022;5.534;2022-09-01T06:22:20;3.20;;;1.67;;
65045;SDS011;54657;52.022;5.534;2022-09-01T06:24:45;2.92;;;1.45;;
65045;SDS011;54657;52.022;5.534;2022-09-01T06:27:11;2.40;;;1.38;;
65045;SDS011;54657;52.022;5.534;2022-09-01T06:29:44;2.13;;;1.30;;
65045;SDS011;54657;52.022;5.534;2022-09-01T06:32:11;4.32;;;1.23;;
65045;SDS011;54657;52.022;5.534;2022-09-01T06:34:38;1.67;;;1.58;;
65045;SDS011;54657;52.022;5.534;2022-09-01T06:37:06;2.65;;;1.40;;
65045;SDS011;54657;52.022;5.534;2022-09-01T06:39:32;2.17;;;1.40;;
65045;SDS011;54657;52.022;5.534;2022-09-01T06:41:58;2.17;;;1.30;;
65045;SDS011;54657;52.022;5.534;2022-09-01T06:44:29;3.13;;;1.40;;
65045;SDS011;54657;52.022;5.534;2022-09-01T06:46:55;2.15;;;1.38;;
65045;SDS011;54657;52.022;5.534;2022-09-01T06:49:22;1.50;;;1.02;;
65045;SDS011;54657;52.022;5.534;2022-09-01T06:51:56;1.58;;;1.17;;
65045;SDS011;54657;52.022;5.534;2022-09-01T06:54:23;3.90;;;1.13;;
65045;SDS011;54657;52.022;5.534;2022-09-01T06:56:49;2.47;;;1.30;;
65045;SDS011;54657;52.022;5.534;2022-09-01T06:59:15;3.60;;;1.23;;
65045;SDS011;54657;52.022;5.534;2022-09-01T07:01:40;3.95;;;1.25;;
65045;SDS011;54657;52.022;5.534;2022-09-01T07:04:06;1.70;;;1.35;;
65045;SDS011;54657;52.022;5.534;2022-09-01T07:06:32;2.03;;;1.25;;
65045;SDS011;54657;52.022;5.534;2022-09-01T07:08:59;1.48;;;1.33;;
65045;SDS011;54657;52.022;5.534;2022-09-01T07:11:26;3.00;;;1.33;;
65045;SDS011;54657;52.022;5.534;2022-09-01T07:13:56;2.58;;;1.13;;
65045;SDS011;54657;52.022;5.534;2022-09-01T07:16:25;1.30;;;1.20;;
65045;SDS011;54657;52.022;5.534;2022-09-01T07:18:53;1.27;;;0.93;;
65045;SDS011;54657;52.022;5.534;2022-09-01T07:21:21;1.27;;;1.00;;
65045;SDS011;54657;52.022;5.534;2022-09-01T07:23:47;7.15;;;1.40;;
65045;SDS011;54657;52.022;5.534;2022-09-01T07:26:13;3.08;;;1.00;;
65045;SDS011;54657;52.022;5.534;2022-09-01T07:28:46;2.83;;;1.00;;
65045;SDS011;54657;52.022;5.534;2022-09-01T07:31:47;2.10;;;0.77;;
65045;SDS011;54657;52.022;5.534;2022-09-01T07:34:08;2.10;;;1.10;;
65045;SDS011;54657;52.022;5.534;2022-09-01T07:36:37;1.63;;;1.00;;
65045;SDS011;54657;52.022;5.534;2022-09-01T07:39:03;2.95;;;1.20;;
65045;SDS011;54657;52.022;5.534;2022-09-01T07:41:29;5.25;;;1.08;;
65045;SDS011;54657;52.022;5.534;2022-09-01T07:43:56;3.08;;;1.35;;
65045;SDS011;54657;52.022;5.534;2022-09-01T07:46:23;2.72;;;1.15;;
65045;SDS011;54657;52.022;5.534;2022-09-01T07:48:51;5.07;;;1.20;;
65045;SDS011;54657;52.022;5.534;2022-09-01T07:51:20;4.10;;;1.35;;
65045;SDS011;54657;52.022;5.534;2022-09-01T07:53:47;2.78;;;1.00;;
65045;SDS011;54657;52.022;5.534;2022-09-01T07:56:15;3.30;;;0.95;;
65045;SDS011;54657;52.022;5.534;2022-09-01T07:58:43;3.97;;;1.10;;
65045;SDS011;54657;52.022;5.534;2022-09-01T08:01:10;4.43;;;1.00;;
65045;SDS011;54657;52.022;5.534;2022-09-01T08:03:39;4.00;;;1.13;;
65045;SDS011;54657;52.022;5.534;2022-09-01T08:06:06;2.00;;;1.20;;
65045;SDS011;54657;52.022;5.534;2022-09-01T08:08:34;2.00;;;1.02;;
65045;SDS011;54657;52.022;5.534;2022-09-01T08:11:01;3.40;;;1.20;;
65045;SDS011;54657;52.022;5.534;2022-09-01T08:13:27;2.45;;;0.80;;
65045;SDS011;54657;52.022;5.534;2022-09-01T08:15:53;3.63;;;1.50;;
65045;SDS011;54657;52.022;5.534;2022-09-01T08:18:19;5.68;;;1.30;;
65045;SDS011;54657;52.022;5.534;2022-09-01T08:20:44;2.17;;;1.08;;
65045;SDS011;54657;52.022;5.534;2022-09-01T08:23:15;7.90;;;1.20;;
65045;SDS011;54657;52.022;5.534;2022-09-01T08:25:43;5.38;;;1.10;;
65045;SDS011;54657;52.022;5.534;2022-09-01T08:28:11;5.53;;;1.00;;
65045;SDS011;54657;52.022;5.534;2022-09-01T08:30:38;1.20;;;1.10;;
65045;SDS011;54657;52.022;5.534;2022-09-01T08:33:06;2.47;;;0.88;;
65045;SDS011;54657;52.022;5.534;2022-09-01T08:35:36;2.95;;;1.00;;
65045;SDS011;54657;52.022;5.534;2022-09-01T08:38:04;1.95;;;0.90;;
65045;SDS011;54657;52.022;5.534;2022-09-01T08:40:30;1.35;;;0.80;;
65045;SDS011;54657;52.022;5.534;2022-09-01T08:48:06;2.53;;;0.95;;
65045;SDS011;54657;52.022;5.534;2022-09-01T08:50:41;1.67;;;0.95;;
65045;SDS011;54657;52.022;5.534;2022-09-01T08:55:55;2.78;;;0.80;;
65045;SDS011;54657;52.022;5.534;2022-09-01T08:58:21;1.77;;;0.80;;
65045;SDS011;54657;52.022;5.534;2022-09-01T09:00:50;2.42;;;0.80;;
65045;SDS011;54657;52.022;5.534;2022-09-01T09:03:25;1.23;;;0.95;;
65045;SDS011;54657;52.022;5.534;2022-09-01T09:06:08;4.22;;;1.00;;
65045;SDS011;54657;52.022;5.534;2022-09-01T09:08:47;0.80;;;0.68;;
65045;SDS011;54657;52.022;5.534;2022-09-01T09:16:53;3.72;;;0.70;;
65045;SDS011;54657;52.022;5.534;2022-09-01T09:19:33;2.17;;;0.95;;
65045;SDS011;54657;52.022;5.534;2022-09-01T09:22:03;2.72;;;0.82;;
65045;SDS011;54657;52.022;5.534;2022-09-01T09:29:51;1.77;;;0.90;;
65045;SDS011;54657;52.022;5.534;2022-09-01T09:32:19;1.13;;;0.70;;
65045;SDS011;54657;52.022;5.534;2022-09-01T09:34:45;1.67;;;0.95;;
65045;SDS011;54657;52.022;5.534;2022-09-01T09:40:04;1.13;;;0.80;;
65045;SDS011;54657;52.022;5.534;2022-09-01T09:42:34;2.72;;;0.82;;
65045;SDS011;54657;52.022;5.534;2022-09-01T09:45:05;2.20;;;0.80;;
65045;SDS011;54657;52.022;5.534;2022-09-01T09:47:45;1.98;;;0.90;;
65045;SDS011;54657;52.022;5.534;2022-09-01T09:52:50;2.88;;;0.90;;
65045;SDS011;54657;52.022;5.534;2022-09-01T09:55:19;2.00;;;0.98;;
65045;SDS011;54657;52.022;5.534;2022-09-01T09:57:52;2.05;;;0.80;;
65045;SDS011;54657;52.022;5.534;2022-09-01T10:00:21;3.70;;;0.70;;
65045;SDS011;54657;52.022;5.534;2022-09-01T10:02:51;0.85;;;0.70;;
65045;SDS011;54657;52.022;5.534;2022-09-01T10:05:27;3.25;;;0.68;;
65045;SDS011;54657;52.022;5.534;2022-09-01T10:07:59;2.28;;;0.80;;
65045;SDS011;54657;52.022;5.534;2022-09-01T10:10:30;2.22;;;0.80;;
65045;SDS011;54657;52.022;5.534;2022-09-01T10:13:16;0.80;;;0.80;;
65045;SDS011;54657;52.022;5.534;2022-09-01T10:15:49;2.65;;;0.90;;
65045;SDS011;54657;52.022;5.534;2022-09-01T10:18:24;1.70;;;0.82;;
65045;SDS011;54657;52.022;5.534;2022-09-01T10:20:59;1.77;;;0.60;;
65045;SDS011;54657;52.022;5.534;2022-09-01T10:23:28;0.75;;;0.60;;
65045;SDS011;54657;52.022;5.534;2022-09-01T10:28:37;1.65;;;1.25;;
65045;SDS011;54657;52.022;5.534;2022-09-01T10:31:13;1.40;;;0.80;;
65045;SDS011;54657;52.022;5.534;2022-09-01T10:33:39;2.80;;;0.90;;
65045;SDS011;54657;52.022;5.534;2022-09-01T10:36:04;1.05;;;0.65;;
65045;SDS011;54657;52.022;5.534;2022-09-01T10:38:31;1.45;;;1.00;;
65045;SDS011;54657;52.022;5.534;2022-09-01T10:40:57;1.83;;;0.75;;
65045;SDS011;54657;52.022;5.534;2022-09-01T10:46:13;0.70;;;0.60;;
65045;SDS011;54657;52.022;5.534;2022-09-01T10:48:57;0.73;;;0.70;;
65045;SDS011;54657;52.022;5.534;2022-09-01T10:53:49;1.30;;;0.70;;
65045;SDS011;54657;52.022;5.534;2022-09-01T10:56:34;3.83;;;0.80;;
65045;SDS011;54657;52.022;5.534;2022-09-01T11:04:19;3.83;;;0.90;;
65045;SDS011;54657;52.022;5.534;2022-09-01T11:12:15;2.15;;;0.88;;
65045;SDS011;54657;52.022;5.534;2022-09-01T11:15:05;2.47;;;0.80;;
65045;SDS011;54657;52.022;5.534;2022-09-01T11:18:07;2.80;;;0.70;;
65045;SDS011;54657;52.022;5.534;2022-09-01T11:21:12;2.42;;;0.80;;
65045;SDS011;54657;52.022;5.534;2022-09-01T11:23:44;0.85;;;0.70;;
65045;SDS011;54657;52.022;5.534;2022-09-01T11:28:56;1.10;;;0.90;;
65045;SDS011;54657;52.022;5.534;2022-09-01T11:31:27;1.42;;;0.60;;
65045;SDS011;54657;52.022;5.534;2022-09-01T11:34:09;1.77;;;0.80;;
65045;SDS011;54657;52.022;5.534;2022-09-01T11:36:36;2.38;;;0.80;;
65045;SDS011;54657;52.022;5.534;2022-09-01T11:42:05;2.40;;;0.85;;
65045;SDS011;54657;52.022;5.534;2022-09-01T11:47:24;1.85;;;0.80;;
65045;SDS011;54657;52.022;5.534;2022-09-01T11:50:46;7.10;;;1.20;;
65045;SDS011;54657;52.022;5.534;2022-09-01T11:52:58;2.78;;;0.80;;
65045;SDS011;54657;52.022;5.534;2022-09-01T11:55:39;0.93;;;0.93;;
65045;SDS011;54657;52.022;5.534;2022-09-01T11:58:13;1.42;;;0.90;;
65045;SDS011;54657;52.022;5.534;2022-09-01T12:03:45;3.10;;;0.80;;
65045;SDS011;54657;52.022;5.534;2022-09-01T12:06:18;1.05;;;0.77;;
65045;SDS011;54657;52.022;5.534;2022-09-01T12:08:57;2.67;;;0.70;;
65045;SDS011;54657;52.022;5.534;2022-09-01T12:11:27;1.08;;;0.70;;
65045;SDS011;54657;52.022;5.534;2022-09-01T12:16:27;0.97;;;0.70;;
65045;SDS011;54657;52.022;5.534;2022-09-01T12:18:54;1.75;;;0.90;;
65045;SDS011;54657;52.022;5.534;2022-09-01T12:21:27;3.53;;;0.70;;
65045;SDS011;54657;52.022;5.534;2022-09-01T12:26:38;0.75;;;0.70;;
65045;SDS011;54657;52.022;5.534;2022-09-01T12:29:05;2.80;;;0.60;;
65045;SDS011;54657;52.022;5.534;2022-09-01T12:31:31;2.10;;;0.90;;
65045;SDS011;54657;52.022;5.534;2022-09-01T12:33:57;1.02;;;0.68;;
65045;SDS011;54657;52.022;5.534;2022-09-01T12:38:51;0.60;;;0.60;;
65045;SDS011;54657;52.022;5.534;2022-09-01T12:41:25;4.47;;;0.80;;
65045;SDS011;54657;52.022;5.534;2022-09-01T12:43:50;3.70;;;0.98;;
65045;SDS011;54657;52.022;5.534;2022-09-01T12:49:21;1.48;;;0.80;;
65045;SDS011;54657;52.022;5.534;2022-09-01T12:52:04;2.45;;;1.00;;
65045;SDS011;54657;52.022;5.534;2022-09-01T12:54:51;3.53;;;0.90;;
65045;SDS011;54657;52.022;5.534;2022-09-01T12:57:33;1.83;;;0.80;;
65045;SDS011;54657;52.022;5.534;2022-09-01T13:02:37;0.77;;;0.77;;
65045;SDS011;54657;52.022;5.534;2022-09-01T13:05:22;2.45;;;0.90;;
65045;SDS011;54657;52.022;5.534;2022-09-01T13:07:52;0.85;;;0.70;;
65045;SDS011;54657;52.022;5.534;2022-09-01T13:10:19;1.10;;;0.75;;
65045;SDS011;54657;52.022;5.534;2022-09-01T13:12:48;2.60;;;0.93;;
65045;SDS011;54657;52.022;5.534;2022-09-01T13:15:15;1.55;;;0.60;;
65045;SDS011;54657;52.022;5.534;2022-09-01T13:17:41;3.25;;;1.00;;
65045;SDS011;54657;52.022;5.534;2022-09-01T13:20:07;1.10;;;1.00;;
65045;SDS011;54657;52.022;5.534;2022-09-01T13:22:36;2.00;;;0.82;;
65045;SDS011;54657;52.022;5.534;2022-09-01T13:25:03;1.30;;;0.95;;
65045;SDS011;54657;52.022;5.534;2022-09-01T13:27:29;0.98;;;0.88;;
65045;SDS011;54657;52.022;5.534;2022-09-01T13:29:55;2.30;;;0.90;;
65045;SDS011;54657;52.022;5.534;2022-09-01T13:32:21;2.33;;;1.00;;
65045;SDS011;54657;52.022;5.534;2022-09-01T13:34:49;1.58;;;1.00;;
65045;SDS011;54657;52.022;5.534;2022-09-01T13:37:16;0.88;;;0.88;;
65045;SDS011;54657;52.022;5.534;2022-09-01T13:39:42;2.67;;;1.00;;
65045;SDS011;54657;52.022;5.534;2022-09-01T13:42:09;3.03;;;1.08;;
65045;SDS011;54657;52.022;5.534;2022-09-01T13:44:34;2.05;;;0.77;;
65045;SDS011;54657;52.022;5.534;2022-09-01T13:47:00;2.38;;;1.00;;
65045;SDS011;54657;52.022;5.534;2022-09-01T13:49:25;1.48;;;0.80;;
65045;SDS011;54657;52.022;5.534;2022-09-01T13:51:51;1.83;;;0.90;;
65045;SDS011;54657;52.022;5.534;2022-09-01T13:54:17;1.13;;;0.98;;
65045;SDS011;54657;52.022;5.534;2022-09-01T13:56:44;0.88;;;0.88;;
65045;SDS011;54657;52.022;5.534;2022-09-01T13:59:09;4.82;;;1.00;;
65045;SDS011;54657;52.022;5.534;2022-09-01T14:01:35;2.92;;;1.42;;
65045;SDS011;54657;52.022;5.534;2022-09-01T14:04:00;2.63;;;0.93;;
65045;SDS011;54657;52.022;5.534;2022-09-01T14:06:29;0.70;;;0.70;;
65045;SDS011;54657;52.022;5.534;2022-09-01T14:08:56;3.05;;;0.90;;
65045;SDS011;54657;52.022;5.534;2022-09-01T14:11:22;4.93;;;0.88;;
65045;SDS011;54657;52.022;5.534;2022-09-01T14:13:48;2.55;;;0.68;;
65045;SDS011;54657;52.022;5.534;2022-09-01T14:16:14;1.38;;;0.82;;
65045;SDS011;54657;52.022;5.534;2022-09-01T14:18:39;2.97;;;1.00;;
65045;SDS011;54657;52.022;5.534;2022-09-01T14:21:10;1.67;;;0.98;;
65045;SDS011;54657;52.022;5.534;2022-09-01T14:23:37;1.35;;;1.10;;
65045;SDS011;54657;52.022;5.534;2022-09-01T14:26:06;1.58;;;0.77;;
65045;SDS011;54657;52.022;5.534;2022-09-01T14:28:35;1.75;;;0.95;;
65045;SDS011;54657;52.022;5.534;2022-09-01T14:31:01;2.53;;;0.88;;
65045;SDS011;54657;52.022;5.534;2022-09-01T14:33:34;3.63;;;0.80;;
65045;SDS011;54657;52.022;5.534;2022-09-01T14:36:01;2.78;;;0.80;;
65045;SDS011;54657;52.022;5.534;2022-09-01T14:38:27;4.43;;;0.95;;
65045;SDS011;54657;52.022;5.534;2022-09-01T14:40:53;3.70;;;0.88;;
65045;SDS011;54657;52.022;5.534;2022-09-01T14:43:19;0.80;;;0.80;;
65045;SDS011;54657;52.022;5.534;2022-09-01T14:45:45;4.90;;;0.98;;
65045;SDS011;54657;52.022;5.534;2022-09-01T14:48:12;1.27;;;0.93;;
65045;SDS011;54657;52.022;5.534;2022-09-01T14:50:42;3.20;;;0.95;;
65045;SDS011;54657;52.022;5.534;2022-09-01T14:53:10;2.58;;;0.88;;
65045;SDS011;54657;52.022;5.534;2022-09-01T14:55:36;2.17;;;0.70;;
65045;SDS011;54657;52.022;5.534;2022-09-01T14:58:02;1.10;;;1.00;;
65045;SDS011;54657;52.022;5.534;2022-09-01T15:00:29;4.00;;;1.08;;
65045;SDS011;54657;52.022;5.534;2022-09-01T15:02:56;2.03;;;0.80;;
65045;SDS011;54657;52.022;5.534;2022-09-01T15:05:22;2.08;;;1.33;;
65045;SDS011;54657;52.022;5.534;2022-09-01T15:07:48;1.42;;;0.80;;
65045;SDS011;54657;52.022;5.534;2022-09-01T15:10:15;2.65;;;1.00;;
65045;SDS011;54657;52.022;5.534;2022-09-01T15:12:42;1.30;;;1.00;;
65045;SDS011;54657;52.022;5.534;2022-09-01T15:15:08;1.50;;;0.90;;
65045;SDS011;54657;52.022;5.534;2022-09-01T15:17:34;3.08;;;0.90;;
65045;SDS011;54657;52.022;5.534;2022-09-01T15:20:00;2.10;;;1.00;;
65045;SDS011;54657;52.022;5.534;2022-09-01T15:23:03;2.85;;;0.82;;
65045;SDS011;54657;52.022;5.534;2022-09-01T15:25:28;2.03;;;1.00;;
65045;SDS011;54657;52.022;5.534;2022-09-01T15:27:54;4.88;;;1.08;;
65045;SDS011;54657;52.022;5.534;2022-09-01T15:30:19;1.98;;;0.90;;
65045;SDS011;54657;52.022;5.534;2022-09-01T15:32:46;2.47;;;1.08;;
65045;SDS011;54657;52.022;5.534;2022-09-01T15:35:14;3.88;;;1.15;;
65045;SDS011;54657;52.022;5.534;2022-09-01T15:37:41;4.40;;;1.55;;
65045;SDS011;54657;52.022;5.534;2022-09-01T15:40:07;1.60;;;1.20;;
65045;SDS011;54657;52.022;5.534;2022-09-01T15:42:34;1.17;;;1.08;;
65045;SDS011;54657;52.022;5.534;2022-09-01T15:45:05;2.65;;;1.10;;
65045;SDS011;54657;52.022;5.534;2022-09-01T15:49:58;3.60;;;1.00;;
65045;SDS011;54657;52.022;5.534;2022-09-01T15:52:24;1.13;;;1.02;;
65045;SDS011;54657;52.022;5.534;2022-09-01T15:54:51;3.65;;;0.80;;
65045;SDS011;54657;52.022;5.534;2022-09-01T15:57:17;2.17;;;0.93;;
65045;SDS011;54657;52.022;5.534;2022-09-01T15:59:43;1.60;;;0.95;;
65045;SDS011;54657;52.022;5.534;2022-09-01T16:02:09;1.42;;;1.00;;
65045;SDS011;54657;52.022;5.534;2022-09-01T16:04:37;1.30;;;1.20;;
65045;SDS011;54657;52.022;5.534;2022-09-01T16:07:03;2.75;;;1.00;;
65045;SDS011;54657;52.022;5.534;2022-09-01T16:09:29;3.17;;;0.88;;
65045;SDS011;54657;52.022;5.534;2022-09-01T16:11:55;2.75;;;1.20;;
65045;SDS011;54657;52.022;5.534;2022-09-01T16:14:20;1.90;;;1.00;;